Ocqueoc, Michigan
Current Conditions -  °F | °C
As of 12:45 PM on Tuesday 21 Oct 2014 (Local Time) from KPZQ Reporting Station
Scattered Clouds Scattered Clouds  
Wind Chill: 37°   Ceiling: Unl
Heat Index: 43°   Visibility: 10mi
Dew Point: 34°   Wind: 10mph
Humidity: 70%   Direction: 350°N
Pressure: 30.2"   Gusts: NA
Location:  45.412°N, 84.1131°W
Report Text: KPZQ 211645Z AUTO 35009KT 10SM SCT026 SCT031 06/01 A3020 RMK AO2
Loading
Personal Weather Stations






























Interactive Weather Map
Tropical Storm Tracking
New forecast layout! Learn more

10-Day Weather Forecast

Advertisements
Track Severe Weather on mobile